sensor_id;sensor_type;location;lat;lon;timestamp;pressure;altitude;pressure_sealevel;temperature;humidity
37304;BME280;23188;51.188;16.374;2022-11-27T00:03:45;101613.73;;;7.64;100.00
37304;BME280;23188;51.188;16.374;2022-11-27T00:07:47;101614.51;;;7.66;100.00
37304;BME280;23188;51.188;16.374;2022-11-27T00:11:49;101616.53;;;7.61;100.00
37304;BME280;23188;51.188;16.374;2022-11-27T00:15:50;101614.27;;;7.62;100.00
37304;BME280;23188;51.188;16.374;2022-11-27T00:19:52;101603.29;;;7.61;100.00
37304;BME280;23188;51.188;16.374;2022-11-27T00:23:56;101594.60;;;7.76;100.00
37304;BME280;23188;51.188;16.374;2022-11-27T00:27:57;101600.77;;;7.77;100.00
37304;BME280;23188;51.188;16.374;2022-11-27T00:31:59;101601.94;;;7.80;100.00
37304;BME280;23188;51.188;16.374;2022-11-27T00:36:02;101605.35;;;7.73;100.00
37304;BME280;23188;51.188;16.374;2022-11-27T00:40:05;101612.19;;;7.68;100.00
37304;BME280;23188;51.188;16.374;2022-11-27T00:44:07;101605.43;;;7.80;100.00
37304;BME280;23188;51.188;16.374;2022-11-27T00:48:08;101604.84;;;7.93;100.00
37304;BME280;23188;51.188;16.374;2022-11-27T00:52:09;101608.56;;;7.80;100.00
37304;BME280;23188;51.188;16.374;2022-11-27T00:56:21;101603.34;;;7.87;100.00
37304;BME280;23188;51.188;16.374;2022-11-27T01:00:19;101615.64;;;7.79;100.00
37304;BME280;23188;51.188;16.374;2022-11-27T01:04:22;101615.38;;;7.66;100.00
37304;BME280;23188;51.188;16.374;2022-11-27T01:08:23;101617.58;;;7.67;100.00
37304;BME280;23188;51.188;16.374;2022-11-27T01:12:25;101618.91;;;7.84;100.00
37304;BME280;23188;51.188;16.374;2022-11-27T01:16:28;101616.66;;;7.94;100.00
37304;BME280;23188;51.188;16.374;2022-11-27T01:20:30;101609.53;;;7.96;100.00
37304;BME280;23188;51.188;16.374;2022-11-27T01:24:31;101609.98;;;8.05;100.00
37304;BME280;23188;51.188;16.374;2022-11-27T01:28:32;101619.34;;;8.21;100.00
37304;BME280;23188;51.188;16.374;2022-11-27T01:32:34;101621.55;;;8.30;100.00
37304;BME280;23188;51.188;16.374;2022-11-27T01:36:35;101617.02;;;8.23;100.00
37304;BME280;23188;51.188;16.374;2022-11-27T01:40:37;101614.91;;;8.12;100.00
37304;BME280;23188;51.188;16.374;2022-11-27T01:44:50;101616.13;;;8.05;100.00
37304;BME280;23188;51.188;16.374;2022-11-27T01:53:14;101618.48;;;7.94;100.00
37304;BME280;23188;51.188;16.374;2022-11-27T01:57:26;101609.82;;;7.99;100.00
37304;BME280;23188;51.188;16.374;2022-11-27T02:01:29;101612.26;;;8.12;100.00
37304;BME280;23188;51.188;16.374;2022-11-27T02:05:31;101608.35;;;8.28;100.00
37304;BME280;23188;51.188;16.374;2022-11-27T02:09:33;101616.23;;;8.39;100.00
37304;BME280;23188;51.188;16.374;2022-11-27T02:18:07;101614.06;;;8.56;100.00
37304;BME280;23188;51.188;16.374;2022-11-27T02:31:50;101614.02;;;8.82;100.00
37304;BME280;23188;51.188;16.374;2022-11-27T02:35:46;101619.30;;;8.91;100.00
37304;BME280;23188;51.188;16.374;2022-11-27T02:44:11;101604.73;;;8.82;100.00
37304;BME280;23188;51.188;16.374;2022-11-27T02:48:18;101603.42;;;8.74;100.00
37304;BME280;23188;51.188;16.374;2022-11-27T02:52:21;101594.09;;;8.66;100.00
37304;BME280;23188;51.188;16.374;2022-11-27T02:56:27;101595.25;;;8.69;100.00
37304;BME280;23188;51.188;16.374;2022-11-27T03:00:30;101587.45;;;8.66;100.00
37304;BME280;23188;51.188;16.374;2022-11-27T03:04:41;101588.92;;;8.63;100.00
37304;BME280;23188;51.188;16.374;2022-11-27T03:08:55;101588.84;;;8.65;100.00
37304;BME280;23188;51.188;16.374;2022-11-27T03:12:59;101586.91;;;8.68;100.00
37304;BME280;23188;51.188;16.374;2022-11-27T03:17:15;101578.94;;;8.68;100.00
37304;BME280;23188;51.188;16.374;2022-11-27T03:21:39;101578.67;;;8.73;100.00
37304;BME280;23188;51.188;16.374;2022-11-27T03:25:42;101571.73;;;8.79;100.00
37304;BME280;23188;51.188;16.374;2022-11-27T03:29:49;101563.79;;;8.95;100.00
37304;BME280;23188;51.188;16.374;2022-11-27T03:33:55;101573.67;;;9.00;100.00
37304;BME280;23188;51.188;16.374;2022-11-27T03:37:57;101576.33;;;9.00;100.00
37304;BME280;23188;51.188;16.374;2022-11-27T03:51:51;101578.77;;;8.96;100.00
37304;BME280;23188;51.188;16.374;2022-11-27T04:00:47;101560.61;;;8.89;100.00
37304;BME280;23188;51.188;16.374;2022-11-27T04:04:50;101560.27;;;8.70;100.00
37304;BME280;23188;51.188;16.374;2022-11-27T04:08:51;101554.98;;;8.61;100.00
37304;BME280;23188;51.188;16.374;2022-11-27T04:12:53;101555.26;;;8.56;100.00
37304;BME280;23188;51.188;16.374;2022-11-27T04:16:54;101549.42;;;8.50;100.00
37304;BME280;23188;51.188;16.374;2022-11-27T04:20:55;101544.38;;;8.61;100.00
37304;BME280;23188;51.188;16.374;2022-11-27T04:24:57;101540.73;;;8.80;100.00
37304;BME280;23188;51.188;16.374;2022-11-27T04:29:04;101527.68;;;8.84;100.00
37304;BME280;23188;51.188;16.374;2022-11-27T04:33:05;101525.23;;;8.72;100.00
37304;BME280;23188;51.188;16.374;2022-11-27T04:37:06;101519.08;;;8.71;100.00
37304;BME280;23188;51.188;16.374;2022-11-27T04:41:07;101527.63;;;8.61;100.00
37304;BME280;23188;51.188;16.374;2022-11-27T04:45:09;101537.91;;;8.58;100.00
37304;BME280;23188;51.188;16.374;2022-11-27T04:49:11;101536.91;;;8.61;100.00
37304;BME280;23188;51.188;16.374;2022-11-27T04:53:12;101538.91;;;8.64;100.00
37304;BME280;23188;51.188;16.374;2022-11-27T04:57:13;101539.22;;;8.67;100.00
37304;BME280;23188;51.188;16.374;2022-11-27T05:10:20;101537.31;;;8.78;100.00
37304;BME280;23188;51.188;16.374;2022-11-27T05:14:21;101535.60;;;8.77;100.00
37304;BME280;23188;51.188;16.374;2022-11-27T05:18:25;101533.44;;;8.76;100.00
37304;BME280;23188;51.188;16.374;2022-11-27T05:22:27;101536.50;;;8.68;100.00
37304;BME280;23188;51.188;16.374;2022-11-27T05:26:28;101540.19;;;8.57;100.00
37304;BME280;23188;51.188;16.374;2022-11-27T05:30:30;101546.21;;;8.52;100.00
37304;BME280;23188;51.188;16.374;2022-11-27T05:34:32;101546.96;;;8.63;100.00
37304;BME280;23188;51.188;16.374;2022-11-27T05:38:33;101549.38;;;8.67;100.00
37304;BME280;23188;51.188;16.374;2022-11-27T05:42:34;101548.29;;;8.63;100.00
37304;BME280;23188;51.188;16.374;2022-11-27T05:46:36;101549.85;;;8.58;100.00
37304;BME280;23188;51.188;16.374;2022-11-27T05:50:38;101550.07;;;8.62;100.00
37304;BME280;23188;51.188;16.374;2022-11-27T05:54:39;101551.47;;;8.69;100.00
37304;BME280;23188;51.188;16.374;2022-11-27T05:58:42;101554.12;;;8.69;100.00
37304;BME280;23188;51.188;16.374;2022-11-27T06:02:44;101551.16;;;8.67;100.00
37304;BME280;23188;51.188;16.374;2022-11-27T06:06:46;101557.16;;;8.70;100.00
37304;BME280;23188;51.188;16.374;2022-11-27T06:10:48;101567.58;;;8.82;100.00
37304;BME280;23188;51.188;16.374;2022-11-27T06:14:50;101571.75;;;8.95;100.00
37304;BME280;23188;51.188;16.374;2022-11-27T06:18:52;101560.55;;;9.06;100.00
37304;BME280;23188;51.188;16.374;2022-11-27T06:22:56;101559.36;;;9.12;100.00
37304;BME280;23188;51.188;16.374;2022-11-27T06:26:57;101568.85;;;9.16;100.00
37304;BME280;23188;51.188;16.374;2022-11-27T06:31:04;101568.68;;;9.19;100.00
37304;BME280;23188;51.188;16.374;2022-11-27T06:35:12;101566.94;;;9.11;100.00
37304;BME280;23188;51.188;16.374;2022-11-27T06:39:13;101565.98;;;9.12;100.00
37304;BME280;23188;51.188;16.374;2022-11-27T06:43:15;101567.91;;;9.17;100.00
37304;BME280;23188;51.188;16.374;2022-11-27T06:47:16;101561.66;;;9.18;100.00
37304;BME280;23188;51.188;16.374;2022-11-27T06:51:33;101565.30;;;9.08;100.00
37304;BME280;23188;51.188;16.374;2022-11-27T06:55:36;101561.41;;;9.07;100.00
37304;BME280;23188;51.188;16.374;2022-11-27T06:59:38;101564.76;;;8.85;100.00
37304;BME280;23188;51.188;16.374;2022-11-27T07:03:40;101560.92;;;8.66;100.00
37304;BME280;23188;51.188;16.374;2022-11-27T07:07:42;101563.11;;;8.58;100.00
37304;BME280;23188;51.188;16.374;2022-11-27T07:11:43;101573.27;;;8.59;100.00
37304;BME280;23188;51.188;16.374;2022-11-27T07:15:48;101571.54;;;8.49;100.00
37304;BME280;23188;51.188;16.374;2022-11-27T07:19:50;101560.72;;;8.36;100.00
37304;BME280;23188;51.188;16.374;2022-11-27T07:23:51;101563.13;;;8.23;100.00
37304;BME280;23188;51.188;16.374;2022-11-27T07:27:54;101561.96;;;8.20;100.00
37304;BME280;23188;51.188;16.374;2022-11-27T07:31:55;101557.60;;;8.19;100.00
37304;BME280;23188;51.188;16.374;2022-11-27T07:36:06;101552.69;;;8.20;100.00
37304;BME280;23188;51.188;16.374;2022-11-27T07:40:21;101553.02;;;8.13;100.00
37304;BME280;23188;51.188;16.374;2022-11-27T07:44:23;101553.23;;;8.18;100.00
37304;BME280;23188;51.188;16.374;2022-11-27T07:48:25;101549.09;;;8.21;100.00
37304;BME280;23188;51.188;16.374;2022-11-27T07:52:29;101557.76;;;8.24;100.00
37304;BME280;23188;51.188;16.374;2022-11-27T07:56:30;101562.42;;;8.46;100.00
37304;BME280;23188;51.188;16.374;2022-11-27T08:00:32;101561.06;;;8.63;100.00
37304;BME280;23188;51.188;16.374;2022-11-27T08:04:34;101560.25;;;8.79;100.00
37304;BME280;23188;51.188;16.374;2022-11-27T08:08:37;101555.78;;;8.88;100.00
37304;BME280;23188;51.188;16.374;2022-11-27T08:12:40;101547.80;;;8.97;100.00
37304;BME280;23188;51.188;16.374;2022-11-27T08:16:42;101553.77;;;9.00;100.00
37304;BME280;23188;51.188;16.374;2022-11-27T08:20:47;101554.01;;;9.05;100.00
37304;BME280;23188;51.188;16.374;2022-11-27T08:24:48;101553.34;;;9.08;100.00
37304;BME280;23188;51.188;16.374;2022-11-27T08:28:51;101549.30;;;9.10;100.00
37304;BME280;23188;51.188;16.374;2022-11-27T08:32:53;101543.05;;;9.11;100.00
37304;BME280;23188;51.188;16.374;2022-11-27T08:36:54;101542.30;;;9.16;100.00
37304;BME280;23188;51.188;16.374;2022-11-27T08:41:12;101537.10;;;9.14;100.00
37304;BME280;23188;51.188;16.374;2022-11-27T08:45:14;101538.12;;;9.12;100.00
37304;BME280;23188;51.188;16.374;2022-11-27T08:49:23;101540.91;;;9.18;100.00
37304;BME280;23188;51.188;16.374;2022-11-27T08:53:25;101545.98;;;9.13;100.00
37304;BME280;23188;51.188;16.374;2022-11-27T08:57:26;101550.72;;;9.24;100.00
37304;BME280;23188;51.188;16.374;2022-11-27T09:01:30;101546.17;;;9.26;100.00
37304;BME280;23188;51.188;16.374;2022-11-27T09:05:32;101553.02;;;9.31;100.00
37304;BME280;23188;51.188;16.374;2022-11-27T09:09:35;101556.89;;;9.32;100.00
37304;BME280;23188;51.188;16.374;2022-11-27T09:13:37;101550.95;;;9.36;100.00
37304;BME280;23188;51.188;16.374;2022-11-27T09:17:43;101546.58;;;9.35;100.00
37304;BME280;23188;51.188;16.374;2022-11-27T09:21:44;101552.08;;;9.32;100.00
37304;BME280;23188;51.188;16.374;2022-11-27T09:25:46;101544.36;;;9.27;100.00
37304;BME280;23188;51.188;16.374;2022-11-27T09:29:56;101547.95;;;9.26;100.00
37304;BME280;23188;51.188;16.374;2022-11-27T09:33:58;101533.55;;;9.30;100.00
37304;BME280;23188;51.188;16.374;2022-11-27T09:37:59;101527.30;;;9.08;100.00
37304;BME280;23188;51.188;16.374;2022-11-27T09:42:23;101528.09;;;8.85;100.00
37304;BME280;23188;51.188;16.374;2022-11-27T09:46:33;101530.15;;;8.71;100.00
37304;BME280;23188;51.188;16.374;2022-11-27T09:50:43;101521.70;;;8.80;100.00
37304;BME280;23188;51.188;16.374;2022-11-27T09:59:48;101518.25;;;8.87;100.00
37304;BME280;23188;51.188;16.374;2022-11-27T10:03:50;101512.11;;;8.78;100.00
37304;BME280;23188;51.188;16.374;2022-11-27T10:16:41;101499.02;;;8.91;100.00
37304;BME280;23188;51.188;16.374;2022-11-27T10:21:05;101492.66;;;9.02;100.00
37304;BME280;23188;51.188;16.374;2022-11-27T10:25:27;101479.80;;;9.26;100.00
37304;BME280;23188;51.188;16.374;2022-11-27T10:33:44;101471.09;;;9.32;100.00
37304;BME280;23188;51.188;16.374;2022-11-27T10:38:20;101467.86;;;9.34;100.00
37304;BME280;23188;51.188;16.374;2022-11-27T10:42:32;101463.38;;;9.50;100.00
37304;BME280;23188;51.188;16.374;2022-11-27T10:46:58;101452.62;;;9.75;100.00
37304;BME280;23188;51.188;16.374;2022-11-27T10:50:59;101448.66;;;9.90;100.00
37304;BME280;23188;51.188;16.374;2022-11-27T10:55:03;101438.98;;;9.96;100.00
37304;BME280;23188;51.188;16.374;2022-11-27T10:59:17;101443.18;;;10.07;100.00
37304;BME280;23188;51.188;16.374;2022-11-27T11:03:25;101441.84;;;10.14;100.00
37304;BME280;23188;51.188;16.374;2022-11-27T11:07:37;101435.57;;;10.15;100.00
37304;BME280;23188;51.188;16.374;2022-11-27T11:11:39;101432.83;;;10.17;100.00
37304;BME280;23188;51.188;16.374;2022-11-27T11:15:59;101435.19;;;9.85;100.00
37304;BME280;23188;51.188;16.374;2022-11-27T11:20:19;101442.59;;;9.88;100.00
37304;BME280;23188;51.188;16.374;2022-11-27T11:24:28;101440.39;;;9.80;100.00
37304;BME280;23188;51.188;16.374;2022-11-27T11:28:35;101442.29;;;9.78;100.00
37304;BME280;23188;51.188;16.374;2022-11-27T11:32:44;101438.57;;;9.73;100.00
37304;BME280;23188;51.188;16.374;2022-11-27T11:37:07;101445.21;;;9.66;100.00
37304;BME280;23188;51.188;16.374;2022-11-27T11:41:11;101430.48;;;9.60;100.00
37304;BME280;23188;51.188;16.374;2022-11-27T11:45:16;101431.81;;;9.67;100.00
37304;BME280;23188;51.188;16.374;2022-11-27T11:49:24;101424.72;;;9.75;100.00
37304;BME280;23188;51.188;16.374;2022-11-27T11:58:05;101418.64;;;9.80;100.00
37304;BME280;23188;51.188;16.374;2022-11-27T12:29:08;101399.87;;;10.12;100.00
37304;BME280;23188;51.188;16.374;2022-11-27T12:33:23;101400.63;;;10.14;100.00
37304;BME280;23188;51.188;16.374;2022-11-27T12:42:18;101393.70;;;10.19;99.29
37304;BME280;23188;51.188;16.374;2022-11-27T12:46:52;101392.65;;;10.29;99.78
37304;BME280;23188;51.188;16.374;2022-11-27T12:51:05;101389.61;;;10.28;99.28
37304;BME280;23188;51.188;16.374;2022-11-27T12:55:14;101388.86;;;10.26;98.80
37304;BME280;23188;51.188;16.374;2022-11-27T12:59:55;101379.73;;;10.30;99.80
37304;BME280;23188;51.188;16.374;2022-11-27T13:13:08;101368.05;;;10.11;98.70
37304;BME280;23188;51.188;16.374;2022-11-27T13:17:15;101355.33;;;10.09;99.70
37304;BME280;23188;51.188;16.374;2022-11-27T13:21:24;101358.09;;;10.00;100.00
37304;BME280;23188;51.188;16.374;2022-11-27T13:25:30;101355.91;;;10.07;100.00
37304;BME280;23188;51.188;16.374;2022-11-27T13:29:43;101359.62;;;10.11;100.00
37304;BME280;23188;51.188;16.374;2022-11-27T13:33:48;101355.81;;;10.15;99.41
37304;BME280;23188;51.188;16.374;2022-11-27T13:37:55;101359.22;;;10.18;99.66
37304;BME280;23188;51.188;16.374;2022-11-27T13:42:03;101360.35;;;10.21;98.86
37304;BME280;23188;51.188;16.374;2022-11-27T13:46:24;101345.09;;;10.17;98.84
37304;BME280;23188;51.188;16.374;2022-11-27T13:50:27;101342.52;;;10.15;98.95
37304;BME280;23188;51.188;16.374;2022-11-27T13:54:30;101337.48;;;10.11;98.89
37304;BME280;23188;51.188;16.374;2022-11-27T13:58:38;101334.92;;;10.02;99.21
37304;BME280;23188;51.188;16.374;2022-11-27T14:06:59;101321.36;;;9.92;100.00
37304;BME280;23188;51.188;16.374;2022-11-27T14:11:08;101315.02;;;9.88;100.00
37304;BME280;23188;51.188;16.374;2022-11-27T14:15:22;101311.13;;;9.79;100.00
37304;BME280;23188;51.188;16.374;2022-11-27T14:19:30;101301.81;;;9.71;100.00
37304;BME280;23188;51.188;16.374;2022-11-27T14:23:51;101300.50;;;9.64;100.00
37304;BME280;23188;51.188;16.374;2022-11-27T14:27:59;101313.77;;;9.50;100.00
37304;BME280;23188;51.188;16.374;2022-11-27T14:32:19;101313.85;;;9.34;100.00
37304;BME280;23188;51.188;16.374;2022-11-27T14:36:28;101301.87;;;9.19;100.00
37304;BME280;23188;51.188;16.374;2022-11-27T14:40:37;101290.95;;;9.09;100.00
37304;BME280;23188;51.188;16.374;2022-11-27T14:44:38;101291.59;;;8.98;100.00
37304;BME280;23188;51.188;16.374;2022-11-27T14:48:48;101306.19;;;8.98;100.00
37304;BME280;23188;51.188;16.374;2022-11-27T14:52:57;101300.69;;;8.94;100.00
37304;BME280;23188;51.188;16.374;2022-11-27T14:56:59;101300.56;;;8.89;100.00
37304;BME280;23188;51.188;16.374;2022-11-27T15:01:04;101290.13;;;8.78;100.00
37304;BME280;23188;51.188;16.374;2022-11-27T15:05:15;101281.48;;;8.75;100.00
37304;BME280;23188;51.188;16.374;2022-11-27T15:09:27;101286.97;;;8.71;100.00
37304;BME280;23188;51.188;16.374;2022-11-27T15:13:32;101290.83;;;8.66;100.00
37304;BME280;23188;51.188;16.374;2022-11-27T15:17:37;101290.44;;;8.65;100.00
37304;BME280;23188;51.188;16.374;2022-11-27T15:21:50;101281.80;;;8.61;100.00
37304;BME280;23188;51.188;16.374;2022-11-27T15:30:17;101280.13;;;8.28;100.00
37304;BME280;23188;51.188;16.374;2022-11-27T15:34:22;101275.50;;;8.15;100.00
37304;BME280;23188;51.188;16.374;2022-11-27T15:38:30;101269.47;;;8.05;100.00
37304;BME280;23188;51.188;16.374;2022-11-27T15:42:31;101263.75;;;7.96;100.00
37304;BME280;23188;51.188;16.374;2022-11-27T15:46:33;101272.40;;;7.91;100.00
37304;BME280;23188;51.188;16.374;2022-11-27T15:50:37;101270.94;;;7.85;100.00
37304;BME280;23188;51.188;16.374;2022-11-27T15:54:38;101278.08;;;7.76;100.00
37304;BME280;23188;51.188;16.374;2022-11-27T15:58:39;101283.02;;;7.66;100.00
37304;BME280;23188;51.188;16.374;2022-11-27T16:02:41;101291.53;;;7.55;100.00
37304;BME280;23188;51.188;16.374;2022-11-27T16:06:42;101276.05;;;7.48;100.00
37304;BME280;23188;51.188;16.374;2022-11-27T16:10:43;101281.75;;;7.40;100.00
37304;BME280;23188;51.188;16.374;2022-11-27T16:14:45;101278.66;;;7.32;100.00
37304;BME280;23188;51.188;16.374;2022-11-27T16:18:46;101279.99;;;7.23;100.00
37304;BME280;23188;51.188;16.374;2022-11-27T16:22:48;101271.13;;;7.15;100.00
37304;BME280;23188;51.188;16.374;2022-11-27T16:26:50;101268.00;;;7.07;100.00
37304;BME280;23188;51.188;16.374;2022-11-27T16:30:53;101269.81;;;6.97;100.00
37304;BME280;23188;51.188;16.374;2022-11-27T16:34:57;101257.58;;;6.86;100.00
37304;BME280;23188;51.188;16.374;2022-11-27T16:38:58;101247.71;;;6.81;100.00
37304;BME280;23188;51.188;16.374;2022-11-27T16:42:59;101242.12;;;6.69;100.00
37304;BME280;23188;51.188;16.374;2022-11-27T16:47:01;101237.61;;;6.63;100.00
37304;BME280;23188;51.188;16.374;2022-11-27T16:51:05;101226.71;;;6.60;100.00
37304;BME280;23188;51.188;16.374;2022-11-27T16:55:08;101220.03;;;6.53;100.00
37304;BME280;23188;51.188;16.374;2022-11-27T16:59:12;101218.98;;;6.47;100.00
37304;BME280;23188;51.188;16.374;2022-11-27T17:03:14;101213.95;;;6.42;100.00
37304;BME280;23188;51.188;16.374;2022-11-27T17:07:15;101209.05;;;6.34;100.00
37304;BME280;23188;51.188;16.374;2022-11-27T17:11:20;101215.33;;;6.32;100.00
37304;BME280;23188;51.188;16.374;2022-11-27T17:15:24;101214.01;;;6.32;100.00
37304;BME280;23188;51.188;16.374;2022-11-27T17:19:26;101212.23;;;6.32;100.00
37304;BME280;23188;51.188;16.374;2022-11-27T17:23:29;101210.74;;;6.26;100.00
37304;BME280;23188;51.188;16.374;2022-11-27T17:27:31;101219.06;;;6.27;100.00
37304;BME280;23188;51.188;16.374;2022-11-27T17:31:34;101224.97;;;6.33;100.00
37304;BME280;23188;51.188;16.374;2022-11-27T17:35:37;101212.63;;;6.33;100.00
37304;BME280;23188;51.188;16.374;2022-11-27T17:39:38;101210.43;;;6.33;100.00
37304;BME280;23188;51.188;16.374;2022-11-27T17:43:46;101209.05;;;6.34;100.00
37304;BME280;23188;51.188;16.374;2022-11-27T17:47:48;101203.14;;;6.29;100.00
37304;BME280;23188;51.188;16.374;2022-11-27T17:51:49;101199.61;;;6.20;100.00
37304;BME280;23188;51.188;16.374;2022-11-27T17:55:51;101202.17;;;6.12;100.00
37304;BME280;23188;51.188;16.374;2022-11-27T17:59:52;101196.78;;;6.05;100.00
37304;BME280;23188;51.188;16.374;2022-11-27T18:03:59;101202.55;;;5.94;100.00
37304;BME280;23188;51.188;16.374;2022-11-27T18:08:01;101193.06;;;5.90;100.00
37304;BME280;23188;51.188;16.374;2022-11-27T18:12:04;101197.90;;;5.91;100.00
37304;BME280;23188;51.188;16.374;2022-11-27T18:16:13;101187.45;;;5.88;100.00
37304;BME280;23188;51.188;16.374;2022-11-27T18:20:17;101177.97;;;5.83;100.00
37304;BME280;23188;51.188;16.374;2022-11-27T18:24:18;101173.53;;;5.75;100.00
37304;BME280;23188;51.188;16.374;2022-11-27T18:28:20;101171.70;;;5.67;100.00
37304;BME280;23188;51.188;16.374;2022-11-27T18:32:34;101161.59;;;5.57;100.00
37304;BME280;23188;51.188;16.374;2022-11-27T18:36:36;101155.59;;;5.54;100.00
37304;BME280;23188;51.188;16.374;2022-11-27T18:40:39;101151.78;;;5.51;100.00
37304;BME280;23188;51.188;16.374;2022-11-27T18:44:41;101155.44;;;5.57;100.00
37304;BME280;23188;51.188;16.374;2022-11-27T18:48:45;101155.08;;;5.65;100.00
37304;BME280;23188;51.188;16.374;2022-11-27T18:52:47;101143.38;;;5.70;100.00
37304;BME280;23188;51.188;16.374;2022-11-27T18:56:51;101138.28;;;5.76;100.00
37304;BME280;23188;51.188;16.374;2022-11-27T19:00:52;101129.81;;;5.78;100.00
37304;BME280;23188;51.188;16.374;2022-11-27T19:04:55;101130.44;;;5.83;100.00
37304;BME280;23188;51.188;16.374;2022-11-27T19:08:57;101132.55;;;5.85;100.00
37304;BME280;23188;51.188;16.374;2022-11-27T19:12:59;101129.91;;;5.85;100.00
37304;BME280;23188;51.188;16.374;2022-11-27T19:17:01;101137.89;;;5.75;100.00
37304;BME280;23188;51.188;16.374;2022-11-27T19:21:17;101133.70;;;5.71;100.00
37304;BME280;23188;51.188;16.374;2022-11-27T19:25:22;101136.78;;;5.70;100.00
37304;BME280;23188;51.188;16.374;2022-11-27T19:29:24;101143.77;;;5.71;100.00
37304;BME280;23188;51.188;16.374;2022-11-27T19:33:25;101142.78;;;5.74;100.00
37304;BME280;23188;51.188;16.374;2022-11-27T19:37:38;101139.98;;;5.77;100.00
37304;BME280;23188;51.188;16.374;2022-11-27T19:41:40;101134.62;;;5.79;100.00
37304;BME280;23188;51.188;16.374;2022-11-27T19:45:49;101136.81;;;5.79;100.00
37304;BME280;23188;51.188;16.374;2022-11-27T19:49:50;101119.59;;;5.81;100.00
37304;BME280;23188;51.188;16.374;2022-11-27T19:53:52;101121.75;;;5.81;100.00
37304;BME280;23188;51.188;16.374;2022-11-27T19:57:56;101119.73;;;5.86;100.00
37304;BME280;23188;51.188;16.374;2022-11-27T20:01:58;101119.45;;;5.93;100.00
37304;BME280;23188;51.188;16.374;2022-11-27T20:06:07;101119.61;;;5.90;100.00
37304;BME280;23188;51.188;16.374;2022-11-27T20:10:11;101113.39;;;5.91;100.00
37304;BME280;23188;51.188;16.374;2022-11-27T20:14:12;101110.59;;;5.94;100.00
37304;BME280;23188;51.188;16.374;2022-11-27T20:18:14;101104.27;;;5.88;100.00
37304;BME280;23188;51.188;16.374;2022-11-27T20:22:15;101098.52;;;5.79;100.00
37304;BME280;23188;51.188;16.374;2022-11-27T20:26:22;101089.11;;;5.74;100.00
37304;BME280;23188;51.188;16.374;2022-11-27T20:30:25;101083.75;;;5.66;100.00
37304;BME280;23188;51.188;16.374;2022-11-27T20:34:26;101078.45;;;5.57;100.00
37304;BME280;23188;51.188;16.374;2022-11-27T20:38:27;101074.10;;;5.56;100.00
37304;BME280;23188;51.188;16.374;2022-11-27T20:42:29;101070.14;;;5.56;100.00
37304;BME280;23188;51.188;16.374;2022-11-27T20:46:31;101081.09;;;5.57;100.00
37304;BME280;23188;51.188;16.374;2022-11-27T20:50:36;101073.23;;;5.56;100.00
37304;BME280;23188;51.188;16.374;2022-11-27T20:54:40;101069.91;;;5.52;100.00
37304;BME280;23188;51.188;16.374;2022-11-27T20:58:44;101072.39;;;5.55;100.00
37304;BME280;23188;51.188;16.374;2022-11-27T21:02:47;101059.35;;;5.52;100.00
37304;BME280;23188;51.188;16.374;2022-11-27T21:06:49;101057.64;;;5.51;100.00
37304;BME280;23188;51.188;16.374;2022-11-27T21:10:51;101053.14;;;5.53;100.00
37304;BME280;23188;51.188;16.374;2022-11-27T21:14:54;101056.32;;;5.51;100.00
37304;BME280;23188;51.188;16.374;2022-11-27T21:18:58;101052.81;;;5.51;100.00
37304;BME280;23188;51.188;16.374;2022-11-27T21:23:00;101058.03;;;5.52;100.00
37304;BME280;23188;51.188;16.374;2022-11-27T21:27:01;101055.78;;;5.53;100.00
37304;BME280;23188;51.188;16.374;2022-11-27T21:35:08;101050.43;;;5.64;100.00
37304;BME280;23188;51.188;16.374;2022-11-27T21:39:18;101049.34;;;5.68;100.00
37304;BME280;23188;51.188;16.374;2022-11-27T21:43:20;101042.35;;;5.67;100.00
37304;BME280;23188;51.188;16.374;2022-11-27T21:47:37;101049.34;;;5.68;100.00
37304;BME280;23188;51.188;16.374;2022-11-27T21:51:38;101044.14;;;5.57;100.00
37304;BME280;23188;51.188;16.374;2022-11-27T21:55:47;101050.11;;;5.52;100.00
37304;BME280;23188;51.188;16.374;2022-11-27T21:59:48;101049.05;;;5.37;100.00
37304;BME280;23188;51.188;16.374;2022-11-27T22:03:57;101044.46;;;5.32;100.00
37304;BME280;23188;51.188;16.374;2022-11-27T22:07:59;101028.42;;;5.18;100.00
37304;BME280;23188;51.188;16.374;2022-11-27T22:12:03;101029.11;;;5.12;100.00
37304;BME280;23188;51.188;16.374;2022-11-27T22:16:11;101023.90;;;5.11;100.00
37304;BME280;23188;51.188;16.374;2022-11-27T22:20:15;101021.64;;;4.84;100.00
37304;BME280;23188;51.188;16.374;2022-11-27T22:24:17;101016.47;;;4.72;100.00
37304;BME280;23188;51.188;16.374;2022-11-27T22:28:18;101019.39;;;4.66;100.00
37304;BME280;23188;51.188;16.374;2022-11-27T22:32:37;101014.03;;;4.67;100.00
37304;BME280;23188;51.188;16.374;2022-11-27T22:36:39;101012.45;;;4.74;100.00
37304;BME280;23188;51.188;16.374;2022-11-27T22:40:48;101013.77;;;4.74;100.00
37304;BME280;23188;51.188;16.374;2022-11-27T22:44:49;101009.14;;;4.79;100.00
37304;BME280;23188;51.188;16.374;2022-11-27T22:48:56;101005.31;;;4.95;100.00
37304;BME280;23188;51.188;16.374;2022-11-27T22:53:00;101003.67;;;5.11;100.00
37304;BME280;23188;51.188;16.374;2022-11-27T22:57:01;101009.13;;;5.17;100.00
37304;BME280;23188;51.188;16.374;2022-11-27T23:01:02;101010.44;;;5.17;100.00
37304;BME280;23188;51.188;16.374;2022-11-27T23:05:15;101003.00;;;5.25;100.00
37304;BME280;23188;51.188;16.374;2022-11-27T23:09:17;100999.20;;;5.22;100.00